Magrath, Canada
Current Conditions -  °F | °C
As of 4:00 PM on Saturday 20 Dec 2014 (Local Time) from CYQL Reporting Station
Scattered Clouds Scattered Clouds  
Wind Chill: 21°   Ceiling: Unl
Heat Index: 30°   Visibility: 40mi
Dew Point: 27°   Wind: 12mph
Humidity: 86%   Direction: 200°SSW
Pressure: 29.64"   Gusts: NA
Location:  49.42°N, 112.87°W
Report Text: CYQL 202300Z 20010KT 40SM FEW130 SCT230 M01/M03 A2964 RMK AC2CI2 SLP068
Loading
Personal Weather Stations






























Interactive Weather Map New forecast layout! Learn more

10-Day Weather Forecast

Advertisements
Track Severe Weather on mobile